sensor_id;sensor_type;location;lat;lon;timestamp;temperature;humidity
19279;DHT22;9773;47.062;15.446;2022-11-15T00:01:01;9.90;99.90
19279;DHT22;9773;47.062;15.446;2022-11-15T00:03:27;9.90;99.90
19279;DHT22;9773;47.062;15.446;2022-11-15T00:05:53;9.90;99.90
19279;DHT22;9773;47.062;15.446;2022-11-15T00:08:19;9.80;99.90
19279;DHT22;9773;47.062;15.446;2022-11-15T00:10:59;9.70;99.90
19279;DHT22;9773;47.062;15.446;2022-11-15T00:13:26;9.80;99.90
19279;DHT22;9773;47.062;15.446;2022-11-15T00:15:52;9.80;99.90
19279;DHT22;9773;47.062;15.446;2022-11-15T00:18:18;9.80;99.90
19279;DHT22;9773;47.062;15.446;2022-11-15T00:20:44;9.70;99.90
19279;DHT22;9773;47.062;15.446;2022-11-15T00:23:10;9.70;99.90
19279;DHT22;9773;47.062;15.446;2022-11-15T00:25:36;9.70;99.90
19279;DHT22;9773;47.062;15.446;2022-11-15T00:28:02;9.80;99.90
19279;DHT22;9773;47.062;15.446;2022-11-15T00:30:28;9.80;99.90
19279;DHT22;9773;47.062;15.446;2022-11-15T00:32:55;9.70;99.90
19279;DHT22;9773;47.062;15.446;2022-11-15T00:35:21;9.70;99.90
19279;DHT22;9773;47.062;15.446;2022-11-15T00:37:47;9.70;99.90
19279;DHT22;9773;47.062;15.446;2022-11-15T00:40:13;9.70;99.90
19279;DHT22;9773;47.062;15.446;2022-11-15T00:42:40;9.70;99.90
19279;DHT22;9773;47.062;15.446;2022-11-15T00:45:06;9.70;99.90
19279;DHT22;9773;47.062;15.446;2022-11-15T00:47:32;9.70;99.90
19279;DHT22;9773;47.062;15.446;2022-11-15T00:49:58;9.60;99.90
19279;DHT22;9773;47.062;15.446;2022-11-15T00:52:24;9.60;99.90
19279;DHT22;9773;47.062;15.446;2022-11-15T00:54:49;9.60;99.90
19279;DHT22;9773;47.062;15.446;2022-11-15T00:57:15;9.60;99.90
19279;DHT22;9773;47.062;15.446;2022-11-15T00:59:41;9.60;99.90
19279;DHT22;9773;47.062;15.446;2022-11-15T01:02:07;9.50;99.90
19279;DHT22;9773;47.062;15.446;2022-11-15T01:04:33;9.60;99.90
19279;DHT22;9773;47.062;15.446;2022-11-15T01:06:59;9.60;99.90
19279;DHT22;9773;47.062;15.446;2022-11-15T01:09:24;9.70;99.90
19279;DHT22;9773;47.062;15.446;2022-11-15T01:11:50;9.60;99.90
19279;DHT22;9773;47.062;15.446;2022-11-15T01:14:16;9.60;99.90
19279;DHT22;9773;47.062;15.446;2022-11-15T01:16:42;9.60;99.90
19279;DHT22;9773;47.062;15.446;2022-11-15T01:19:07;9.50;99.90
19279;DHT22;9773;47.062;15.446;2022-11-15T01:21:33;9.50;99.90
19279;DHT22;9773;47.062;15.446;2022-11-15T01:23:59;9.50;99.90
19279;DHT22;9773;47.062;15.446;2022-11-15T01:26:25;9.50;99.90
19279;DHT22;9773;47.062;15.446;2022-11-15T01:28:51;9.50;99.90
19279;DHT22;9773;47.062;15.446;2022-11-15T01:31:19;9.50;99.90
19279;DHT22;9773;47.062;15.446;2022-11-15T01:33:45;9.60;99.90
19279;DHT22;9773;47.062;15.446;2022-11-15T01:36:14;9.60;99.90
19279;DHT22;9773;47.062;15.446;2022-11-15T01:38:40;9.60;99.90
19279;DHT22;9773;47.062;15.446;2022-11-15T01:41:06;9.60;99.90
19279;DHT22;9773;47.062;15.446;2022-11-15T01:43:34;9.60;99.90
19279;DHT22;9773;47.062;15.446;2022-11-15T01:46:25;9.70;99.90
19279;DHT22;9773;47.062;15.446;2022-11-15T01:48:53;9.60;99.90
19279;DHT22;9773;47.062;15.446;2022-11-15T01:51:23;9.60;99.90
19279;DHT22;9773;47.062;15.446;2022-11-15T01:53:53;9.60;99.90
19279;DHT22;9773;47.062;15.446;2022-11-15T01:56:24;9.60;99.90
19279;DHT22;9773;47.062;15.446;2022-11-15T01:58:51;9.60;99.90
19279;DHT22;9773;47.062;15.446;2022-11-15T02:01:18;9.70;99.90
19279;DHT22;9773;47.062;15.446;2022-11-15T02:03:52;9.70;99.90
19279;DHT22;9773;47.062;15.446;2022-11-15T02:06:21;9.60;99.90
19279;DHT22;9773;47.062;15.446;2022-11-15T02:08:50;9.60;99.90
19279;DHT22;9773;47.062;15.446;2022-11-15T02:11:16;9.60;99.90
19279;DHT22;9773;47.062;15.446;2022-11-15T02:13:42;9.60;99.90
19279;DHT22;9773;47.062;15.446;2022-11-15T02:16:29;9.60;99.90
19279;DHT22;9773;47.062;15.446;2022-11-15T02:25:09;9.50;99.90
19279;DHT22;9773;47.062;15.446;2022-11-15T02:33:03;9.40;99.90
19279;DHT22;9773;47.062;15.446;2022-11-15T02:38:55;9.50;99.90
19279;DHT22;9773;47.062;15.446;2022-11-15T02:41:40;9.50;99.90
19279;DHT22;9773;47.062;15.446;2022-11-15T02:44:14;9.50;99.90
19279;DHT22;9773;47.062;15.446;2022-11-15T02:46:57;9.50;99.90
19279;DHT22;9773;47.062;15.446;2022-11-15T02:49:45;9.40;99.90
19279;DHT22;9773;47.062;15.446;2022-11-15T02:52:19;9.50;99.90
19279;DHT22;9773;47.062;15.446;2022-11-15T03:03:07;9.50;99.90
19279;DHT22;9773;47.062;15.446;2022-11-15T03:06:32;9.50;99.90
19279;DHT22;9773;47.062;15.446;2022-11-15T03:11:27;9.40;99.90
19279;DHT22;9773;47.062;15.446;2022-11-15T03:14:21;9.50;99.90
19279;DHT22;9773;47.062;15.446;2022-11-15T03:16:55;9.50;99.90
19279;DHT22;9773;47.062;15.446;2022-11-15T03:19:35;9.50;99.90
19279;DHT22;9773;47.062;15.446;2022-11-15T03:22:06;9.50;99.90
19279;DHT22;9773;47.062;15.446;2022-11-15T03:24:35;9.50;99.90
19279;DHT22;9773;47.062;15.446;2022-11-15T03:27:03;9.50;99.90
19279;DHT22;9773;47.062;15.446;2022-11-15T03:29:37;9.40;99.90
19279;DHT22;9773;47.062;15.446;2022-11-15T03:32:10;9.40;99.90
19279;DHT22;9773;47.062;15.446;2022-11-15T03:34:49;9.40;99.90
19279;DHT22;9773;47.062;15.446;2022-11-15T03:37:20;9.40;99.90
19279;DHT22;9773;47.062;15.446;2022-11-15T03:39:47;9.40;99.90
19279;DHT22;9773;47.062;15.446;2022-11-15T03:42:27;9.40;99.90
19279;DHT22;9773;47.062;15.446;2022-11-15T03:44:58;9.40;99.90
19279;DHT22;9773;47.062;15.446;2022-11-15T03:47:45;9.20;99.90
19279;DHT22;9773;47.062;15.446;2022-11-15T03:50:16;9.20;99.90
19279;DHT22;9773;47.062;15.446;2022-11-15T03:52:45;9.30;99.90
19279;DHT22;9773;47.062;15.446;2022-11-15T03:55:15;9.40;99.90
19279;DHT22;9773;47.062;15.446;2022-11-15T03:57:42;9.40;99.90
19279;DHT22;9773;47.062;15.446;2022-11-15T04:00:08;9.50;99.90
19279;DHT22;9773;47.062;15.446;2022-11-15T04:02:34;9.40;99.90
19279;DHT22;9773;47.062;15.446;2022-11-15T04:05:00;9.50;99.90
19279;DHT22;9773;47.062;15.446;2022-11-15T04:07:26;9.40;99.90
19279;DHT22;9773;47.062;15.446;2022-11-15T04:09:52;9.40;99.90
19279;DHT22;9773;47.062;15.446;2022-11-15T04:12:36;9.40;99.90
19279;DHT22;9773;47.062;15.446;2022-11-15T04:15:14;9.40;99.90
19279;DHT22;9773;47.062;15.446;2022-11-15T04:17:44;9.40;99.90
19279;DHT22;9773;47.062;15.446;2022-11-15T04:20:21;9.50;99.90
19279;DHT22;9773;47.062;15.446;2022-11-15T04:23:14;9.50;99.90
19279;DHT22;9773;47.062;15.446;2022-11-15T04:26:01;9.40;99.90
19279;DHT22;9773;47.062;15.446;2022-11-15T04:28:27;9.40;99.90
19279;DHT22;9773;47.062;15.446;2022-11-15T04:30:54;9.40;99.90
19279;DHT22;9773;47.062;15.446;2022-11-15T04:33:20;9.40;99.90
19279;DHT22;9773;47.062;15.446;2022-11-15T04:35:46;9.40;99.90
19279;DHT22;9773;47.062;15.446;2022-11-15T04:38:32;9.40;99.90
19279;DHT22;9773;47.062;15.446;2022-11-15T04:40:58;9.40;99.90
19279;DHT22;9773;47.062;15.446;2022-11-15T04:43:24;9.40;99.90
19279;DHT22;9773;47.062;15.446;2022-11-15T04:45:50;9.30;99.90
19279;DHT22;9773;47.062;15.446;2022-11-15T04:48:15;9.30;99.90
19279;DHT22;9773;47.062;15.446;2022-11-15T04:50:41;9.30;99.90
19279;DHT22;9773;47.062;15.446;2022-11-15T04:53:07;9.30;99.90
19279;DHT22;9773;47.062;15.446;2022-11-15T04:55:33;9.30;99.90
19279;DHT22;9773;47.062;15.446;2022-11-15T04:58:00;9.30;99.90
19279;DHT22;9773;47.062;15.446;2022-11-15T05:00:27;9.30;99.90
19279;DHT22;9773;47.062;15.446;2022-11-15T05:02:53;9.30;99.90
19279;DHT22;9773;47.062;15.446;2022-11-15T05:05:38;9.30;99.90
19279;DHT22;9773;47.062;15.446;2022-11-15T05:08:04;9.30;99.90
19279;DHT22;9773;47.062;15.446;2022-11-15T05:10:30;9.30;99.90
19279;DHT22;9773;47.062;15.446;2022-11-15T05:12:56;9.30;99.90
19279;DHT22;9773;47.062;15.446;2022-11-15T05:15:22;9.30;99.90
19279;DHT22;9773;47.062;15.446;2022-11-15T05:17:47;9.30;99.90
19279;DHT22;9773;47.062;15.446;2022-11-15T05:20:13;9.30;99.90
19279;DHT22;9773;47.062;15.446;2022-11-15T05:22:39;9.30;99.90
19279;DHT22;9773;47.062;15.446;2022-11-15T05:25:06;9.40;99.90
19279;DHT22;9773;47.062;15.446;2022-11-15T05:27:33;9.30;99.90
19279;DHT22;9773;47.062;15.446;2022-11-15T05:29:59;9.30;99.90
19279;DHT22;9773;47.062;15.446;2022-11-15T05:32:25;9.30;99.90
19279;DHT22;9773;47.062;15.446;2022-11-15T05:34:52;9.30;99.90
19279;DHT22;9773;47.062;15.446;2022-11-15T05:37:18;9.30;99.90
19279;DHT22;9773;47.062;15.446;2022-11-15T05:39:43;9.30;99.90
19279;DHT22;9773;47.062;15.446;2022-11-15T05:42:14;9.20;99.90
19279;DHT22;9773;47.062;15.446;2022-11-15T05:44:44;9.40;99.90
19279;DHT22;9773;47.062;15.446;2022-11-15T05:47:15;9.30;99.90
19279;DHT22;9773;47.062;15.446;2022-11-15T05:49:44;9.30;99.90
19279;DHT22;9773;47.062;15.446;2022-11-15T05:52:14;9.40;99.90
19279;DHT22;9773;47.062;15.446;2022-11-15T05:54:41;9.30;99.90
19279;DHT22;9773;47.062;15.446;2022-11-15T05:57:07;9.30;99.90
19279;DHT22;9773;47.062;15.446;2022-11-15T05:59:33;9.40;99.90
19279;DHT22;9773;47.062;15.446;2022-11-15T06:02:00;9.30;99.90
19279;DHT22;9773;47.062;15.446;2022-11-15T06:04:26;9.40;99.90
19279;DHT22;9773;47.062;15.446;2022-11-15T06:06:51;9.40;99.90
19279;DHT22;9773;47.062;15.446;2022-11-15T06:09:17;9.40;99.90
19279;DHT22;9773;47.062;15.446;2022-11-15T06:11:43;9.40;99.90
19279;DHT22;9773;47.062;15.446;2022-11-15T06:14:09;9.40;99.90
19279;DHT22;9773;47.062;15.446;2022-11-15T06:16:34;9.40;99.90
19279;DHT22;9773;47.062;15.446;2022-11-15T06:19:00;9.40;99.90
19279;DHT22;9773;47.062;15.446;2022-11-15T06:21:27;9.40;99.90
19279;DHT22;9773;47.062;15.446;2022-11-15T06:23:54;9.30;99.90
19279;DHT22;9773;47.062;15.446;2022-11-15T06:26:20;9.30;99.90
19279;DHT22;9773;47.062;15.446;2022-11-15T06:28:46;9.40;99.90
19279;DHT22;9773;47.062;15.446;2022-11-15T06:31:12;9.40;99.90
19279;DHT22;9773;47.062;15.446;2022-11-15T06:33:38;9.40;99.90
19279;DHT22;9773;47.062;15.446;2022-11-15T06:36:06;9.30;99.90
19279;DHT22;9773;47.062;15.446;2022-11-15T06:38:33;9.40;99.90
19279;DHT22;9773;47.062;15.446;2022-11-15T06:41:07;9.40;99.90
19279;DHT22;9773;47.062;15.446;2022-11-15T06:43:34;9.40;99.90
19279;DHT22;9773;47.062;15.446;2022-11-15T06:46:01;9.40;99.90
19279;DHT22;9773;47.062;15.446;2022-11-15T06:48:28;9.40;99.90
19279;DHT22;9773;47.062;15.446;2022-11-15T06:50:56;9.40;99.90
19279;DHT22;9773;47.062;15.446;2022-11-15T06:53:22;9.40;99.90
19279;DHT22;9773;47.062;15.446;2022-11-15T06:55:48;9.40;99.90
19279;DHT22;9773;47.062;15.446;2022-11-15T06:58:14;9.40;99.90
19279;DHT22;9773;47.062;15.446;2022-11-15T07:00:39;9.40;99.90
19279;DHT22;9773;47.062;15.446;2022-11-15T07:03:05;9.40;99.90
19279;DHT22;9773;47.062;15.446;2022-11-15T07:05:31;9.40;99.90
19279;DHT22;9773;47.062;15.446;2022-11-15T07:07:58;9.40;99.90
19279;DHT22;9773;47.062;15.446;2022-11-15T07:10:25;9.40;99.90
19279;DHT22;9773;47.062;15.446;2022-11-15T07:12:51;9.40;99.90
19279;DHT22;9773;47.062;15.446;2022-11-15T07:15:19;9.50;99.90
19279;DHT22;9773;47.062;15.446;2022-11-15T07:17:45;9.50;99.90
19279;DHT22;9773;47.062;15.446;2022-11-15T07:20:12;9.40;99.90
19279;DHT22;9773;47.062;15.446;2022-11-15T07:22:39;9.40;99.90
19279;DHT22;9773;47.062;15.446;2022-11-15T07:25:05;9.40;99.90
19279;DHT22;9773;47.062;15.446;2022-11-15T07:27:31;9.30;99.90
19279;DHT22;9773;47.062;15.446;2022-11-15T07:29:57;9.40;99.90
19279;DHT22;9773;47.062;15.446;2022-11-15T07:32:23;9.40;99.90
19279;DHT22;9773;47.062;15.446;2022-11-15T07:34:49;9.50;99.90
19279;DHT22;9773;47.062;15.446;2022-11-15T07:37:14;9.60;99.90
19279;DHT22;9773;47.062;15.446;2022-11-15T07:39:42;9.50;99.90
19279;DHT22;9773;47.062;15.446;2022-11-15T07:42:08;9.40;99.90
19279;DHT22;9773;47.062;15.446;2022-11-15T07:44:52;9.40;99.90
19279;DHT22;9773;47.062;15.446;2022-11-15T07:47:18;9.40;99.90
19279;DHT22;9773;47.062;15.446;2022-11-15T07:49:44;9.20;99.90
19279;DHT22;9773;47.062;15.446;2022-11-15T07:52:12;9.20;99.90
19279;DHT22;9773;47.062;15.446;2022-11-15T07:54:38;9.20;99.90
19279;DHT22;9773;47.062;15.446;2022-11-15T07:57:04;9.20;99.90
19279;DHT22;9773;47.062;15.446;2022-11-15T07:59:31;9.30;99.90
19279;DHT22;9773;47.062;15.446;2022-11-15T08:01:57;9.30;99.90
19279;DHT22;9773;47.062;15.446;2022-11-15T08:04:22;9.10;99.90
19279;DHT22;9773;47.062;15.446;2022-11-15T08:06:48;9.20;99.90
19279;DHT22;9773;47.062;15.446;2022-11-15T08:09:14;9.30;99.90
19279;DHT22;9773;47.062;15.446;2022-11-15T08:11:40;9.30;99.90
19279;DHT22;9773;47.062;15.446;2022-11-15T08:14:06;9.20;99.90
19279;DHT22;9773;47.062;15.446;2022-11-15T08:16:32;9.30;99.90
19279;DHT22;9773;47.062;15.446;2022-11-15T08:18:58;9.30;99.90
19279;DHT22;9773;47.062;15.446;2022-11-15T08:21:24;9.40;99.90
19279;DHT22;9773;47.062;15.446;2022-11-15T08:23:49;9.40;99.90
19279;DHT22;9773;47.062;15.446;2022-11-15T08:26:15;9.40;99.90
19279;DHT22;9773;47.062;15.446;2022-11-15T08:28:42;9.50;99.90
19279;DHT22;9773;47.062;15.446;2022-11-15T08:31:17;9.50;99.90
19279;DHT22;9773;47.062;15.446;2022-11-15T08:33:44;9.50;99.90
19279;DHT22;9773;47.062;15.446;2022-11-15T08:36:15;9.50;99.90
19279;DHT22;9773;47.062;15.446;2022-11-15T08:38:41;9.50;99.90
19279;DHT22;9773;47.062;15.446;2022-11-15T08:41:16;9.60;99.90
19279;DHT22;9773;47.062;15.446;2022-11-15T08:43:45;9.60;99.90
19279;DHT22;9773;47.062;15.446;2022-11-15T08:46:12;9.70;99.90
19279;DHT22;9773;47.062;15.446;2022-11-15T08:48:39;9.70;99.90
19279;DHT22;9773;47.062;15.446;2022-11-15T08:51:05;9.70;99.90
19279;DHT22;9773;47.062;15.446;2022-11-15T08:53:33;9.80;99.90
19279;DHT22;9773;47.062;15.446;2022-11-15T08:55:59;9.90;99.90
19279;DHT22;9773;47.062;15.446;2022-11-15T08:58:24;10.00;99.90
19279;DHT22;9773;47.062;15.446;2022-11-15T09:00:50;10.00;99.90
19279;DHT22;9773;47.062;15.446;2022-11-15T09:03:16;10.10;99.90
19279;DHT22;9773;47.062;15.446;2022-11-15T09:05:42;10.10;99.90
19279;DHT22;9773;47.062;15.446;2022-11-15T09:08:08;10.10;99.90
19279;DHT22;9773;47.062;15.446;2022-11-15T09:10:34;10.30;99.90
19279;DHT22;9773;47.062;15.446;2022-11-15T09:13:00;10.30;99.90
19279;DHT22;9773;47.062;15.446;2022-11-15T09:15:26;10.30;99.90
19279;DHT22;9773;47.062;15.446;2022-11-15T09:17:52;10.30;99.90
19279;DHT22;9773;47.062;15.446;2022-11-15T09:20:18;10.30;99.90
19279;DHT22;9773;47.062;15.446;2022-11-15T09:22:43;10.40;99.90
19279;DHT22;9773;47.062;15.446;2022-11-15T09:25:09;10.40;99.90
19279;DHT22;9773;47.062;15.446;2022-11-15T09:27:35;10.50;99.90
19279;DHT22;9773;47.062;15.446;2022-11-15T09:30:01;10.60;99.90
19279;DHT22;9773;47.062;15.446;2022-11-15T09:32:30;10.60;99.90
19279;DHT22;9773;47.062;15.446;2022-11-15T09:34:57;10.70;99.90
19279;DHT22;9773;47.062;15.446;2022-11-15T09:37:22;10.60;99.90
19279;DHT22;9773;47.062;15.446;2022-11-15T09:39:48;10.50;99.90
19279;DHT22;9773;47.062;15.446;2022-11-15T09:45:08;10.50;99.90
19279;DHT22;9773;47.062;15.446;2022-11-15T09:50:35;10.50;99.90
19279;DHT22;9773;47.062;15.446;2022-11-15T09:53:02;10.50;99.90
19279;DHT22;9773;47.062;15.446;2022-11-15T09:55:38;10.50;99.90
19279;DHT22;9773;47.062;15.446;2022-11-15T09:58:24;10.50;99.90
19279;DHT22;9773;47.062;15.446;2022-11-15T10:00:52;10.60;99.90
19279;DHT22;9773;47.062;15.446;2022-11-15T10:03:34;10.50;99.90
19279;DHT22;9773;47.062;15.446;2022-11-15T10:06:02;10.50;99.90
19279;DHT22;9773;47.062;15.446;2022-11-15T10:08:50;10.50;99.90
19279;DHT22;9773;47.062;15.446;2022-11-15T10:11:23;10.50;99.90
19279;DHT22;9773;47.062;15.446;2022-11-15T10:13:52;10.50;99.90
19279;DHT22;9773;47.062;15.446;2022-11-15T10:19:52;10.50;99.90
19279;DHT22;9773;47.062;15.446;2022-11-15T10:24:30;10.70;99.90
19279;DHT22;9773;47.062;15.446;2022-11-15T10:27:00;10.80;99.90
19279;DHT22;9773;47.062;15.446;2022-11-15T10:29:26;11.10;99.90
19279;DHT22;9773;47.062;15.446;2022-11-15T10:31:52;11.20;99.90
19279;DHT22;9773;47.062;15.446;2022-11-15T10:34:23;11.30;99.90
19279;DHT22;9773;47.062;15.446;2022-11-15T10:36:59;11.10;99.90
19279;DHT22;9773;47.062;15.446;2022-11-15T10:39:27;11.20;99.90
19279;DHT22;9773;47.062;15.446;2022-11-15T10:41:54;11.10;99.90
19279;DHT22;9773;47.062;15.446;2022-11-15T10:44:30;11.10;99.90
19279;DHT22;9773;47.062;15.446;2022-11-15T10:49:31;11.00;99.90
19279;DHT22;9773;47.062;15.446;2022-11-15T10:54:48;11.10;99.90
19279;DHT22;9773;47.062;15.446;2022-11-15T10:57:18;11.10;99.90
19279;DHT22;9773;47.062;15.446;2022-11-15T10:59:52;11.10;99.90
19279;DHT22;9773;47.062;15.446;2022-11-15T11:02:39;11.30;99.90
19279;DHT22;9773;47.062;15.446;2022-11-15T11:05:28;11.40;99.90
19279;DHT22;9773;47.062;15.446;2022-11-15T11:08:17;11.40;99.90
19279;DHT22;9773;47.062;15.446;2022-11-15T11:10:56;11.40;99.90
19279;DHT22;9773;47.062;15.446;2022-11-15T11:13:26;11.40;99.90
19279;DHT22;9773;47.062;15.446;2022-11-15T11:18:38;11.30;99.90
19279;DHT22;9773;47.062;15.446;2022-11-15T11:21:13;11.40;99.90
19279;DHT22;9773;47.062;15.446;2022-11-15T11:24:03;11.40;99.90
19279;DHT22;9773;47.062;15.446;2022-11-15T11:26:46;11.40;99.90
19279;DHT22;9773;47.062;15.446;2022-11-15T11:35:42;11.50;99.90
19279;DHT22;9773;47.062;15.446;2022-11-15T11:38:00;11.50;99.90
19279;DHT22;9773;47.062;15.446;2022-11-15T11:40:41;11.50;99.90
19279;DHT22;9773;47.062;15.446;2022-11-15T11:43:30;11.40;99.90
19279;DHT22;9773;47.062;15.446;2022-11-15T11:48:48;11.50;99.90
19279;DHT22;9773;47.062;15.446;2022-11-15T11:57:25;11.70;99.90
19279;DHT22;9773;47.062;15.446;2022-11-15T12:00:04;11.80;99.90
19279;DHT22;9773;47.062;15.446;2022-11-15T12:02:41;11.80;99.90
19279;DHT22;9773;47.062;15.446;2022-11-15T12:05:31;11.80;99.90
19279;DHT22;9773;47.062;15.446;2022-11-15T12:08:10;11.80;99.90
19279;DHT22;9773;47.062;15.446;2022-11-15T12:10:45;11.80;99.90
19279;DHT22;9773;47.062;15.446;2022-11-15T12:13:23;11.80;99.90
19279;DHT22;9773;47.062;15.446;2022-11-15T12:18:37;11.80;99.90
19279;DHT22;9773;47.062;15.446;2022-11-15T12:21:41;11.80;99.90
19279;DHT22;9773;47.062;15.446;2022-11-15T12:29:44;11.50;99.90
19279;DHT22;9773;47.062;15.446;2022-11-15T12:32:28;11.40;99.90
19279;DHT22;9773;47.062;15.446;2022-11-15T12:34:55;11.40;99.90
19279;DHT22;9773;47.062;15.446;2022-11-15T12:42:41;11.30;99.90
19279;DHT22;9773;47.062;15.446;2022-11-15T12:45:44;11.30;99.90
19279;DHT22;9773;47.062;15.446;2022-11-15T12:58:56;11.10;99.90
19279;DHT22;9773;47.062;15.446;2022-11-15T13:06:49;11.10;99.90
19279;DHT22;9773;47.062;15.446;2022-11-15T13:12:10;11.00;99.90
19279;DHT22;9773;47.062;15.446;2022-11-15T13:14:42;10.90;99.90
19279;DHT22;9773;47.062;15.446;2022-11-15T13:17:33;10.90;99.90
19279;DHT22;9773;47.062;15.446;2022-11-15T13:22:27;10.80;99.90
19279;DHT22;9773;47.062;15.446;2022-11-15T13:27:47;10.80;99.90
19279;DHT22;9773;47.062;15.446;2022-11-15T13:30:20;10.70;99.90
19279;DHT22;9773;47.062;15.446;2022-11-15T13:32:47;10.70;99.90
19279;DHT22;9773;47.062;15.446;2022-11-15T13:35:27;10.70;99.90
19279;DHT22;9773;47.062;15.446;2022-11-15T13:37:56;10.70;99.90
19279;DHT22;9773;47.062;15.446;2022-11-15T13:40:29;10.70;99.90
19279;DHT22;9773;47.062;15.446;2022-11-15T13:42:58;10.80;99.90
19279;DHT22;9773;47.062;15.446;2022-11-15T13:45:25;10.80;99.90
19279;DHT22;9773;47.062;15.446;2022-11-15T13:47:57;10.90;99.90
19279;DHT22;9773;47.062;15.446;2022-11-15T13:50:33;10.70;99.90
19279;DHT22;9773;47.062;15.446;2022-11-15T13:53:02;10.70;99.90
19279;DHT22;9773;47.062;15.446;2022-11-15T13:55:29;10.70;99.90
19279;DHT22;9773;47.062;15.446;2022-11-15T13:58:00;10.70;99.90
19279;DHT22;9773;47.062;15.446;2022-11-15T14:00:44;10.70;99.90
19279;DHT22;9773;47.062;15.446;2022-11-15T14:03:21;10.80;99.90
19279;DHT22;9773;47.062;15.446;2022-11-15T14:06:09;10.80;99.90
19279;DHT22;9773;47.062;15.446;2022-11-15T14:08:59;10.80;99.90
19279;DHT22;9773;47.062;15.446;2022-11-15T14:11:24;10.80;99.90
19279;DHT22;9773;47.062;15.446;2022-11-15T14:16:35;10.70;99.90
19279;DHT22;9773;47.062;15.446;2022-11-15T14:19:03;10.70;99.90
19279;DHT22;9773;47.062;15.446;2022-11-15T14:21:30;10.60;99.90
19279;DHT22;9773;47.062;15.446;2022-11-15T14:24:20;10.60;99.90
19279;DHT22;9773;47.062;15.446;2022-11-15T14:26:46;10.70;99.90
19279;DHT22;9773;47.062;15.446;2022-11-15T14:29:25;10.70;99.90
19279;DHT22;9773;47.062;15.446;2022-11-15T14:32:05;10.60;99.90
19279;DHT22;9773;47.062;15.446;2022-11-15T14:34:38;10.60;99.90
19279;DHT22;9773;47.062;15.446;2022-11-15T14:37:04;10.60;99.90
19279;DHT22;9773;47.062;15.446;2022-11-15T14:39:30;10.60;99.90
19279;DHT22;9773;47.062;15.446;2022-11-15T14:41:56;10.60;99.90
19279;DHT22;9773;47.062;15.446;2022-11-15T14:44:21;10.50;99.90
19279;DHT22;9773;47.062;15.446;2022-11-15T14:46:47;10.50;99.90
19279;DHT22;9773;47.062;15.446;2022-11-15T14:49:14;10.50;99.90
19279;DHT22;9773;47.062;15.446;2022-11-15T14:51:40;10.50;99.90
19279;DHT22;9773;47.062;15.446;2022-11-15T14:54:10;10.60;99.90
19279;DHT22;9773;47.062;15.446;2022-11-15T14:56:36;10.40;99.90
19279;DHT22;9773;47.062;15.446;2022-11-15T14:59:01;10.30;99.90
19279;DHT22;9773;47.062;15.446;2022-11-15T15:01:27;10.30;99.90
19279;DHT22;9773;47.062;15.446;2022-11-15T15:03:53;10.20;99.90
19279;DHT22;9773;47.062;15.446;2022-11-15T15:06:22;10.30;99.90
19279;DHT22;9773;47.062;15.446;2022-11-15T15:08:48;10.20;99.90
19279;DHT22;9773;47.062;15.446;2022-11-15T15:11:24;10.30;99.90
19279;DHT22;9773;47.062;15.446;2022-11-15T15:13:51;10.30;99.90
19279;DHT22;9773;47.062;15.446;2022-11-15T15:16:18;10.30;99.90
19279;DHT22;9773;47.062;15.446;2022-11-15T15:18:44;10.30;99.90
19279;DHT22;9773;47.062;15.446;2022-11-15T15:21:26;10.40;99.90
19279;DHT22;9773;47.062;15.446;2022-11-15T15:23:53;10.30;99.90
19279;DHT22;9773;47.062;15.446;2022-11-15T15:26:23;10.30;99.90
19279;DHT22;9773;47.062;15.446;2022-11-15T15:29:01;10.20;99.90
19279;DHT22;9773;47.062;15.446;2022-11-15T15:31:27;10.20;99.90
19279;DHT22;9773;47.062;15.446;2022-11-15T15:33:53;10.20;99.90
19279;DHT22;9773;47.062;15.446;2022-11-15T15:36:19;10.20;99.90
19279;DHT22;9773;47.062;15.446;2022-11-15T15:38:45;10.30;99.90
19279;DHT22;9773;47.062;15.446;2022-11-15T15:41:13;10.30;99.90
19279;DHT22;9773;47.062;15.446;2022-11-15T15:43:40;10.30;99.90
19279;DHT22;9773;47.062;15.446;2022-11-15T15:46:14;10.30;99.90
19279;DHT22;9773;47.062;15.446;2022-11-15T15:48:40;10.30;99.90
19279;DHT22;9773;47.062;15.446;2022-11-15T15:51:07;10.20;99.90
19279;DHT22;9773;47.062;15.446;2022-11-15T15:53:33;10.20;99.90
19279;DHT22;9773;47.062;15.446;2022-11-15T15:56:00;10.20;99.90
19279;DHT22;9773;47.062;15.446;2022-11-15T15:58:26;10.20;99.90
19279;DHT22;9773;47.062;15.446;2022-11-15T16:00:52;10.20;99.90
19279;DHT22;9773;47.062;15.446;2022-11-15T16:03:18;10.30;99.90
19279;DHT22;9773;47.062;15.446;2022-11-15T16:05:44;10.20;99.90
19279;DHT22;9773;47.062;15.446;2022-11-15T16:08:21;10.30;99.90
19279;DHT22;9773;47.062;15.446;2022-11-15T16:10:47;10.20;99.90
19279;DHT22;9773;47.062;15.446;2022-11-15T16:13:13;10.20;99.90
19279;DHT22;9773;47.062;15.446;2022-11-15T16:15:39;10.20;99.90
19279;DHT22;9773;47.062;15.446;2022-11-15T16:18:05;10.30;99.90
19279;DHT22;9773;47.062;15.446;2022-11-15T16:20:39;10.30;99.90
19279;DHT22;9773;47.062;15.446;2022-11-15T16:23:07;10.20;99.90
19279;DHT22;9773;47.062;15.446;2022-11-15T16:25:57;10.30;99.90
19279;DHT22;9773;47.062;15.446;2022-11-15T16:28:30;10.30;99.90
19279;DHT22;9773;47.062;15.446;2022-11-15T16:31:14;10.30;99.90
19279;DHT22;9773;47.062;15.446;2022-11-15T16:33:44;10.20;99.90
19279;DHT22;9773;47.062;15.446;2022-11-15T16:36:24;10.20;99.90
19279;DHT22;9773;47.062;15.446;2022-11-15T16:38:51;10.20;99.90
19279;DHT22;9773;47.062;15.446;2022-11-15T16:41:17;10.20;99.90
19279;DHT22;9773;47.062;15.446;2022-11-15T16:43:47;10.10;99.90
19279;DHT22;9773;47.062;15.446;2022-11-15T16:46:25;10.10;99.90
19279;DHT22;9773;47.062;15.446;2022-11-15T16:48:52;10.00;99.90
19279;DHT22;9773;47.062;15.446;2022-11-15T16:51:21;10.00;99.90
19279;DHT22;9773;47.062;15.446;2022-11-15T16:53:48;9.90;99.90
19279;DHT22;9773;47.062;15.446;2022-11-15T16:58:44;10.00;99.90
19279;DHT22;9773;47.062;15.446;2022-11-15T17:01:17;9.90;99.90
19279;DHT22;9773;47.062;15.446;2022-11-15T17:03:43;9.90;99.90
19279;DHT22;9773;47.062;15.446;2022-11-15T17:06:10;10.00;99.90
19279;DHT22;9773;47.062;15.446;2022-11-15T17:08:38;10.10;99.90
19279;DHT22;9773;47.062;15.446;2022-11-15T17:11:06;10.00;99.90
19279;DHT22;9773;47.062;15.446;2022-11-15T17:13:33;9.80;99.90
19279;DHT22;9773;47.062;15.446;2022-11-15T17:16:07;9.80;99.90
19279;DHT22;9773;47.062;15.446;2022-11-15T17:18:34;9.90;99.90
19279;DHT22;9773;47.062;15.446;2022-11-15T17:21:09;10.00;99.90
19279;DHT22;9773;47.062;15.446;2022-11-15T17:23:38;10.10;99.90
19279;DHT22;9773;47.062;15.446;2022-11-15T17:26:05;10.10;99.90
19279;DHT22;9773;47.062;15.446;2022-11-15T17:28:33;10.00;99.90
19279;DHT22;9773;47.062;15.446;2022-11-15T17:31:00;10.00;99.90
19279;DHT22;9773;47.062;15.446;2022-11-15T17:33:26;10.00;99.90
19279;DHT22;9773;47.062;15.446;2022-11-15T17:36:02;10.10;99.90
19279;DHT22;9773;47.062;15.446;2022-11-15T17:38:28;10.10;99.90
19279;DHT22;9773;47.062;15.446;2022-11-15T17:41:12;10.10;99.90